Locharron, United Kingdom
Current Conditions -  °F | °C
As of 6:20 AM on Thursday 29 Jan 2015 (Local Time) from EGPE Reporting Station
Snow Showers Snow Showers  
Wind Chill: 20°   Ceiling: Unl
Heat Index: 32°   Visibility: 2.8mi
Dew Point: 30°   Wind: 18mph
Humidity: 93%   Direction: 230°SW
Pressure: 28.73"   Gusts: NA
Location:  57.4°N, 5.48°W
Report Text: EGPE 290620Z 23016KT 4500 -SHSN FEW005 FEW015CB SCT020 M00/M01 Q0973 RESN R/SNOCLO
Loading
Personal Weather Stations






























Interactive Weather Map New forecast layout! Learn more

10-Day Weather Forecast

Advertisements
Track Severe Weather on mobile